Time;durP1;ratioP1;P1;durP2;ratioP2;P2;SDS_P1;SDS_P2;PMS_P1;PMS_P2;Temp;Humidity;BMP_temperature;BMP_pressure;BME280_temperature;BME280_humidity;BME280_pressure;Samples;Min_cycle;Max_cycle;Signal;HPM_P1;HPM_P2
2022/05/02 03:02:18;;;;;;;29.80;27.73;;;10.40;99.90;;;;;;5122311;23;20248;-74
2022/05/02 03:07:28;;;;;;;28.47;26.43;;;10.40;99.90;;;;;;4975519;28;20185;-74
2022/05/02 03:09:56;;;;;;;29.97;27.57;;;10.40;99.90;;;;;;4972948;28;20192;-73
2022/05/02 03:12:22;;;;;;;28.93;26.90;;;10.40;99.90;;;;;;4974695;28;20213;-74
2022/05/02 03:14:48;;;;;;;24.80;22.80;;;10.40;99.90;;;;;;4985413;23;20701;-77
2022/05/02 03:17:14;;;;;;;25.23;23.33;;;10.40;99.90;;;;;;4956883;29;20185;-79
2022/05/02 03:19:39;;;;;;;27.13;25.03;;;10.30;99.90;;;;;;4960703;28;20715;-74
2022/05/02 03:22:06;;;;;;;25.00;22.80;;;10.30;99.90;;;;;;4958060;28;20186;-75
2022/05/02 03:24:32;;;;;;;27.47;25.43;;;10.20;99.90;;;;;;4954756;28;20276;-75
2022/05/02 03:26:58;;;;;;;29.20;27.13;;;10.20;99.90;;;;;;4955587;28;20264;-75
2022/05/02 03:29:24;;;;;;;30.80;28.70;;;10.10;99.90;;;;;;4953303;28;20301;-75
2022/05/02 03:31:49;;;;;;;26.83;24.90;;;10.00;99.90;;;;;;4955710;28;20717;-75
2022/05/02 03:34:15;;;;;;;27.07;25.20;;;9.90;99.90;;;;;;4955048;28;20301;-76
2022/05/02 03:36:41;;;;;;;26.63;24.73;;;9.80;99.90;;;;;;4956286;29;20189;-76
2022/05/02 03:39:07;;;;;;;31.73;29.60;;;9.70;99.90;;;;;;4956543;29;20292;-75
2022/05/02 03:41:33;;;;;;;43.43;40.47;;;9.60;99.90;;;;;;4956612;28;20681;-75
2022/05/02 03:43:59;;;;;;;31.10;28.60;;;9.50;99.90;;;;;;4955396;28;20214;-75
2022/05/02 03:46:25;;;;;;;31.17;29.03;;;9.40;99.90;;;;;;4955552;29;20180;-75
2022/05/02 03:48:51;;;;;;;40.13;37.37;;;9.30;99.90;;;;;;4953981;28;20211;-76
2022/05/02 03:51:18;;;;;;;39.73;36.80;;;9.20;99.90;;;;;;4954039;29;20181;-76
2022/05/02 03:53:44;;;;;;;31.00;28.67;;;9.10;99.90;;;;;;4946387;28;20273;-76
2022/05/02 03:56:10;;;;;;;23.93;22.07;;;9.00;99.90;;;;;;4947017;29;20622;-75
2022/05/02 03:58:36;;;;;;;22.53;20.83;;;9.00;99.90;;;;;;4953592;29;20181;-75
2022/05/02 04:01:01;;;;;;;19.97;18.17;;;8.90;99.90;;;;;;4955264;29;20235;-76
2022/05/02 04:03:27;;;;;;;21.50;19.77;;;8.80;99.90;;;;;;4954339;29;20269;-74
2022/05/02 04:05:53;;;;;;;16.77;15.13;;;8.80;99.90;;;;;;4954837;28;20700;-75
2022/05/02 04:08:19;;;;;;;17.43;15.83;;;8.70;99.90;;;;;;4954035;29;20815;-76
2022/05/02 04:10:45;;;;;;;18.07;16.50;;;8.60;99.90;;;;;;4954906;29;20178;-75
2022/05/02 04:13:11;;;;;;;25.00;22.97;;;8.60;99.90;;;;;;4954486;29;20185;-75
2022/05/02 04:15:37;;;;;;;27.33;25.07;;;8.50;99.90;;;;;;4954522;29;20224;-75
2022/05/02 04:18:03;;;;;;;26.10;24.10;;;8.40;99.90;;;;;;4952473;28;20185;-75
2022/05/02 04:20:29;;;;;;;23.87;21.67;;;8.40;99.90;;;;;;4954174;28;20248;-75
2022/05/02 04:22:54;;;;;;;22.47;20.63;;;8.40;99.90;;;;;;4953219;29;20186;-75
2022/05/02 04:25:20;;;;;;;17.87;14.17;;;8.40;99.90;;;;;;4954444;29;20281;-75
2022/05/02 04:27:46;;;;;;;19.67;15.80;;;8.30;99.90;;;;;;4952983;28;20184;-75
2022/05/02 04:30:13;;;;;;;18.70;16.83;;;8.20;99.90;;;;;;4954263;29;20208;-75
2022/05/02 04:32:39;;;;;;;16.83;15.23;;;8.20;99.90;;;;;;4953478;28;20217;-75
2022/05/02 04:35:05;;;;;;;23.03;20.87;;;8.20;99.90;;;;;;4954150;29;20237;-75
2022/05/02 04:37:31;;;;;;;20.30;18.60;;;8.20;99.90;;;;;;4952273;29;20257;-74
2022/05/02 04:39:57;;;;;;;19.67;17.77;;;8.30;99.90;;;;;;4954132;28;20204;-76
2022/05/02 04:42:23;;;;;;;20.60;18.73;;;8.20;99.90;;;;;;4954443;29;20182;-76
2022/05/02 04:44:49;;;;;;;19.90;18.07;;;8.30;99.90;;;;;;4953724;29;20304;-75
2022/05/02 04:47:15;;;;;;;18.13;16.40;;;8.30;99.90;;;;;;4952384;29;20610;-74
2022/05/02 04:49:41;;;;;;;18.10;16.40;;;8.40;99.90;;;;;;4953701;28;20190;-74
2022/05/02 04:52:07;;;;;;;18.73;16.97;;;8.50;99.90;;;;;;4953652;29;20261;-73
2022/05/02 04:54:33;;;;;;;18.87;17.07;;;8.50;99.90;;;;;;4953662;28;20636;-73
2022/05/02 04:56:58;;;;;;;22.60;17.67;;;8.60;99.90;;;;;;4953262;28;20186;-75
2022/05/02 04:59:24;;;;;;;18.30;16.57;;;8.70;99.90;;;;;;4953758;29;20206;-75
2022/05/02 05:01:50;;;;;;;20.93;18.83;;;8.80;99.90;;;;;;4953043;29;20548;-74
2022/05/02 05:04:16;;;;;;;22.70;20.30;;;8.90;99.90;;;;;;4954185;28;20658;-73
2022/05/02 05:06:42;;;;;;;21.50;18.67;;;9.00;99.90;;;;;;4953773;29;20188;-74
2022/05/02 05:09:08;;;;;;;24.53;22.30;;;9.20;99.90;;;;;;4952986;29;20208;-75
2022/05/02 05:11:52;;;;;;;19.87;17.80;;;9.40;99.90;;;;;;4955443;29;20222;-76
2022/05/02 05:17:34;;;;;;;26.07;24.07;;;10.00;99.90;;;;;;4953507;29;20566;-75
2022/05/02 05:20:11;;;;;;;20.70;18.67;;;10.60;99.90;;;;;;4952356;29;20248;-75
2022/05/02 05:23:01;;;;;;;32.37;29.90;;;11.00;99.90;;;;;;4953213;28;20720;-76
2022/05/02 05:25:57;;;;;;;89.80;84.77;;;11.60;99.90;;;;;;4952801;28;20220;-76
2022/05/02 05:28:35;;;;;;;45.13;42.23;;;12.00;99.90;;;;;;4952884;28;20597;-71
2022/05/02 05:31:41;;;;;;;23.33;19.57;;;12.30;99.90;;;;;;4953131;29;20271;-71
2022/05/02 05:34:26;;;;;;;34.20;25.77;;;12.60;99.90;;;;;;4953334;28;20206;-71
2022/05/02 05:37:31;;;;;;;16.23;14.93;;;12.90;99.90;;;;;;4952837;28;20445;-71
2022/05/02 05:40:27;;;;;;;22.80;21.23;;;13.20;99.90;;;;;;4951754;29;20283;-71
2022/05/02 05:43:06;;;;;;;15.83;14.53;;;13.50;99.90;;;;;;4951977;29;20268;-72
2022/05/02 05:45:56;;;;;;;16.30;14.93;;;13.70;99.90;;;;;;4951859;28;20365;-71
2022/05/02 05:48:45;;;;;;;15.60;14.00;;;14.00;99.90;;;;;;4953164;29;20223;-72
2022/05/02 05:51:22;;;;;;;13.37;12.17;;;14.30;99.90;;;;;;4915250;28;20729;-71
2022/05/02 05:54:19;;;;;;;12.27;11.17;;;14.40;99.90;;;;;;4953648;29;20276;-71
2022/05/02 05:57:16;;;;;;;12.90;11.57;;;14.70;99.90;;;;;;4936147;28;20278;-71
2022/05/02 06:00:02;;;;;;;15.23;13.13;;;15.00;99.90;;;;;;4934157;29;20810;-71
2022/05/02 06:02:43;;;;;;;13.10;11.90;;;15.30;99.90;;;;;;4932671;29;20733;-71
2022/05/02 06:05:12;;;;;;;13.40;12.20;;;15.30;99.90;;;;;;4933881;29;20226;-71
2022/05/02 06:07:39;;;;;;;17.20;15.90;;;15.40;99.90;;;;;;4933562;29;20241;-71
2022/05/02 06:10:07;;;;;;;19.10;17.33;;;15.40;99.90;;;;;;4933895;29;20182;-70
2022/05/02 06:12:35;;;;;;;24.87;23.10;;;15.50;99.90;;;;;;4932680;29;20213;-70
2022/05/02 06:20:35;;;;;;;17.63;16.23;;;16.20;99.90;;;;;;4934405;29;20212;-70
2022/05/02 06:23:03;;;;;;;16.03;14.47;;;16.80;99.90;;;;;;4936805;29;20178;-71
2022/05/02 06:25:29;;;;;;;13.87;12.67;;;16.90;99.90;;;;;;4935686;29;20241;-71
2022/05/02 06:27:57;;;;;;;17.90;16.43;;;17.10;99.90;;;;;;4933517;29;20179;-70
2022/05/02 06:30:24;;;;;;;30.83;28.73;;;17.60;99.90;;;;;;4933793;29;20182;-72
2022/05/02 06:32:52;;;;;;;27.40;25.60;;;17.90;99.90;;;;;;4933495;29;20183;-71
2022/05/02 06:35:18;;;;;;;20.57;19.10;;;17.60;99.90;;;;;;4933598;29;20249;-71
2022/05/02 06:38:19;;;;;;;16.30;15.10;;;17.10;99.90;;;;;;4934889;29;20190;-70
2022/05/02 06:41:15;;;;;;;13.57;12.40;;;17.00;99.90;;;;;;4932951;29;20241;-71
2022/05/02 06:43:49;;;;;;;13.80;12.60;;;16.90;99.90;;;;;;4934867;29;20297;-71
2022/05/02 06:46:20;;;;;;;20.93;19.30;;;17.00;99.90;;;;;;4934880;29;20220;-70
2022/05/02 06:48:46;;;;;;;26.43;24.73;;;17.70;99.90;;;;;;4936100;29;20189;-70
2022/05/02 06:51:21;;;;;;;23.90;21.97;;;18.00;99.90;;;;;;4937800;29;20178;-71
2022/05/02 06:54:05;;;;;;;21.97;20.10;;;17.90;99.90;;;;;;4939466;29;20182;-71
2022/05/02 06:56:45;;;;;;;14.53;13.10;;;18.40;99.90;;;;;;4956133;28;20268;-71
2022/05/02 06:59:38;;;;;;;14.93;13.50;;;18.70;99.90;;;;;;4956061;28;20244;-71
2022/05/02 07:02:38;;;;;;;20.33;18.50;;;19.30;99.90;;;;;;4954868;29;20181;-70
2022/05/02 07:05:20;;;;;;;21.07;19.43;;;19.60;99.90;;;;;;4956018;28;20220;-69
2022/05/02 07:07:52;;;;;;;25.17;23.07;;;19.40;99.90;;;;;;4955967;28;20828;-70
2022/05/02 07:10:23;;;;;;;19.87;18.10;;;19.60;99.90;;;;;;4955765;29;20188;-69
2022/05/02 07:13:13;;;;;;;20.17;18.47;;;19.70;99.90;;;;;;4954856;29;20653;-70
2022/05/02 07:15:51;;;;;;;20.27;18.73;;;19.50;99.90;;;;;;4954514;29;20221;-70
2022/05/02 07:18:45;;;;;;;18.60;17.13;;;19.50;99.90;;;;;;4954044;29;20268;-71
2022/05/02 07:21:37;;;;;;;17.67;15.97;;;19.90;99.90;;;;;;4955845;28;20190;-71
2022/05/02 07:24:40;;;;;;;16.00;14.47;;;20.10;99.90;;;;;;4945266;28;20268;-71
2022/05/02 07:27:25;;;;;;;16.23;14.60;;;20.40;99.90;;;;;;4955345;28;20182;-69
2022/05/02 07:29:54;;;;;;;15.37;13.77;;;20.60;99.90;;;;;;4955489;28;20189;-70
2022/05/02 07:32:22;;;;;;;15.50;13.93;;;20.70;99.90;;;;;;4955255;28;20189;-71
2022/05/02 07:34:48;;;;;;;15.53;14.13;;;20.90;99.90;;;;;;4955193;29;20213;-71
2022/05/02 07:37:16;;;;;;;17.23;15.83;;;20.70;99.90;;;;;;4955092;28;20189;-71
2022/05/02 07:39:43;;;;;;;15.90;14.43;;;20.80;99.90;;;;;;4954796;28;20213;-71
2022/05/02 07:42:10;;;;;;;18.83;17.30;;;20.70;99.90;;;;;;4955557;28;20182;-72
2022/05/02 07:44:38;;;;;;;19.30;17.57;;;20.60;99.90;;;;;;4954676;28;20708;-70
2022/05/02 07:47:05;;;;;;;19.10;17.47;;;21.00;99.90;;;;;;4954563;28;20277;-71
2022/05/02 07:49:33;;;;;;;16.35;14.85;;;21.30;99.90;;;;;;4954062;29;20552;-70
2022/05/02 07:52:01;;;;;;;16.25;14.85;;;21.40;98.30;;;;;;4953986;28;20660;-71
2022/05/02 07:54:37;;;;;;;15.18;13.82;;;21.60;97.70;;;;;;4953726;28;20214;-71
2022/05/02 07:57:05;;;;;;;16.05;14.75;;;21.80;97.30;;;;;;4955058;28;20685;-70
2022/05/02 07:59:39;;;;;;;15.13;13.77;;;22.30;96.10;;;;;;4954982;28;20190;-70
2022/05/02 08:02:05;;;;;;;15.27;13.98;;;22.40;94.60;;;;;;4954819;29;20189;-70
2022/05/02 08:04:31;;;;;;;15.65;14.15;;;22.50;95.20;;;;;;4954984;28;20217;-70
2022/05/02 08:07:09;;;;;;;14.65;13.27;;;22.20;94.40;;;;;;4954388;28;20277;-71
2022/05/02 08:10:05;;;;;;;18.15;16.42;;;22.50;94.70;;;;;;4954288;28;20185;-71
2022/05/02 08:12:40;;;;;;;15.98;14.57;;;22.50;91.60;;;;;;4953616;29;20198;-70
2022/05/02 08:15:12;;;;;;;18.17;16.73;;;22.60;92.20;;;;;;4954565;28;20224;-71
2022/05/02 08:17:57;;;;;;;16.13;14.82;;;22.60;90.90;;;;;;4940655;29;20194;-71
2022/05/02 08:20:27;;;;;;;18.70;17.17;;;22.80;91.10;;;;;;4950398;29;20202;-71
2022/05/02 08:28:56;;;;;;;28.13;26.23;;;22.70;84.70;;;;;;4953695;29;20274;-74
2022/05/02 08:31:42;;;;;;;22.67;20.55;;;22.40;83.80;;;;;;4952974;28;20276;-75
2022/05/02 08:34:30;;;;;;;24.02;22.25;;;22.40;88.20;;;;;;4953408;28;20206;-76
2022/05/02 08:37:21;;;;;;;20.88;19.27;;;22.40;88.30;;;;;;4952407;28;20661;-74
2022/05/02 08:40:02;;;;;;;22.83;20.88;;;22.50;87.00;;;;;;4954861;28;20627;-74
2022/05/02 08:42:41;;;;;;;23.58;21.83;;;23.10;84.10;;;;;;4957623;28;20220;-73
2022/05/02 08:45:36;;;;;;;23.17;21.33;;;23.10;83.10;;;;;;4955249;28;20253;-74
2022/05/02 08:48:46;;;;;;;21.80;20.15;;;23.60;83.00;;;;;;4954959;28;20621;-75
2022/05/02 08:51:27;;;;;;;18.50;17.17;;;23.60;79.00;;;;;;4953925;29;20272;-73
2022/05/02 08:54:18;;;;;;;21.60;20.00;;;23.30;78.10;;;;;;4953779;29;20444;-74
2022/05/02 08:56:53;;;;;;;21.85;20.30;;;23.00;80.80;;;;;;4954647;29;20205;-73
2022/05/02 08:59:22;;;;;;;19.80;18.48;;;23.30;76.70;;;;;;4952789;28;20240;-72
2022/05/02 09:02:29;;;;;;;18.77;17.48;;;23.40;76.40;;;;;;4938711;29;20201;-75
2022/05/02 09:05:14;;;;;;;19.40;18.00;;;23.00;75.10;;;;;;4929690;29;20296;-76
2022/05/02 09:08:10;;;;;;;21.33;19.73;;;22.50;77.50;;;;;;4951968;29;20224;-75
2022/05/02 09:11:34;;;;;;;13.95;12.50;;;22.70;76.80;;;;;;4954815;29;20233;-76
2022/05/02 09:17:07;;;;;;;15.68;14.57;;;23.90;85.20;;;;;;5026605;23;20251;-73
2022/05/02 09:19:54;;;;;;;10.95;9.95;;;24.30;73.60;;;;;;4978608;28;20404;-73
2022/05/02 09:22:51;;;;;;;12.77;11.68;;;25.00;79.30;;;;;;5009157;28;20198;-72
2022/05/02 09:25:45;;;;;;;16.92;15.77;;;24.90;70.00;;;;;;5001098;28;20227;-72
2022/05/02 09:28:21;;;;;;;20.38;19.00;;;23.00;73.00;;;;;;4991711;28;20227;-72
2022/05/02 09:31:21;;;;;;;19.10;17.60;;;22.90;76.30;;;;;;4990728;28;20275;-72
2022/05/02 09:34:08;;;;;;;16.40;15.05;;;23.00;79.10;;;;;;4994841;28;20625;-72
2022/05/02 09:36:44;;;;;;;13.75;12.77;;;23.60;78.90;;;;;;4992485;28;20575;-72
2022/05/02 09:39:15;;;;;;;12.98;12.05;;;23.50;80.30;;;;;;4991748;28;20176;-72
2022/05/02 09:42:02;;;;;;;14.93;13.80;;;23.20;81.00;;;;;;4992143;28;20661;-73
2022/05/02 09:51:31;;;;;;;18.13;16.95;;;22.80;80.30;;;;;;4931654;29;20222;-72
2022/05/02 09:57:21;;;;;;;9.10;8.25;;;24.70;72.50;;;;;;4991488;28;20184;-71
2022/05/02 10:02:45;;;;;;;10.38;9.38;;;25.10;67.90;;;;;;4992241;28;20188;-71
2022/05/02 10:05:38;;;;;;;9.50;8.70;;;25.60;70.00;;;;;;4991522;28;20223;-71
2022/05/02 10:08:22;;;;;;;10.10;9.30;;;26.50;72.60;;;;;;4991002;28;20608;-71
2022/05/02 10:11:05;;;;;;;9.90;8.90;;;27.00;62.10;;;;;;4991754;28;20199;-72
2022/05/02 10:14:03;;;;;;;9.93;9.02;;;26.50;59.70;;;;;;5002133;28;20752;-72
2022/05/02 10:16:55;;;;;;;9.48;8.77;;;25.70;61.40;;;;;;5020730;28;20280;-72
2022/05/02 10:19:47;;;;;;;10.15;9.45;;;25.70;63.70;;;;;;4996422;28;20195;-72
2022/05/02 10:22:46;;;;;;;9.55;8.85;;;25.80;59.50;;;;;;4995564;28;20180;-72
2022/05/02 10:25:20;;;;;;;11.52;10.73;;;26.10;59.60;;;;;;4995524;28;20226;-73
2022/05/02 10:28:27;;;;;;;9.80;9.05;;;25.40;59.90;;;;;;4993908;28;20188;-73
2022/05/02 10:31:17;;;;;;;10.50;9.75;;;24.90;60.40;;;;;;4954435;28;20193;-73
2022/05/02 10:33:45;;;;;;;8.85;8.10;;;23.70;62.60;;;;;;4975821;28;20204;-72
2022/05/02 10:36:12;;;;;;;9.23;8.27;;;22.70;68.10;;;;;;4987839;28;20676;-72
2022/05/02 10:38:52;;;;;;;13.57;12.68;;;22.40;67.20;;;;;;4994880;28;20195;-72
2022/05/02 10:41:46;;;;;;;12.63;11.52;;;21.90;70.60;;;;;;5003292;28;20207;-71
2022/05/02 10:44:16;;;;;;;11.02;10.23;;;21.90;73.20;;;;;;5012864;28;20185;-72
2022/05/02 10:46:45;;;;;;;11.98;11.07;;;22.30;72.90;;;;;;4994940;28;20223;-72
2022/05/02 10:49:30;;;;;;;14.25;13.30;;;22.40;73.00;;;;;;4995729;28;20684;-72
2022/05/02 10:52:02;;;;;;;12.52;11.60;;;22.70;71.00;;;;;;4995917;28;20190;-72
2022/05/02 10:54:49;;;;;;;11.68;10.68;;;23.00;70.60;;;;;;4995168;28;20711;-72
2022/05/02 10:57:35;;;;;;;11.70;11.00;;;23.20;67.70;;;;;;4994826;28;20188;-71
2022/05/02 11:00:07;;;;;;;11.40;10.60;;;22.70;69.90;;;;;;4993818;28;20184;-71
2022/05/02 11:02:47;;;;;;;10.38;9.57;;;22.70;72.60;;;;;;4994913;28;20222;-72
2022/05/02 11:05:19;;;;;;;12.55;11.55;;;22.90;68.90;;;;;;4978898;28;20216;-72
2022/05/02 11:08:05;;;;;;;12.85;11.85;;;22.70;69.90;;;;;;4973602;28;20243;-71
2022/05/02 11:10:39;;;;;;;12.20;11.25;;;22.60;70.50;;;;;;4984821;28;20176;-72
2022/05/02 11:13:23;;;;;;;12.60;11.60;;;22.30;70.30;;;;;;4994372;28;20188;-72
2022/05/02 11:15:58;;;;;;;12.35;11.45;;;22.40;69.90;;;;;;4994288;28;20223;-71
2022/05/02 11:21:48;;;;;;;11.35;10.65;;;22.20;71.60;;;;;;4994363;28;20192;-73
2022/05/02 11:24:41;;;;;;;11.25;10.45;;;23.30;72.40;;;;;;4974766;28;20607;-70
2022/05/02 11:27:15;;;;;;;7.72;7.15;;;25.10;66.90;;;;;;4974018;28;20280;-70
2022/05/02 11:29:56;;;;;;;8.80;8.20;;;25.70;63.20;;;;;;4974708;28;20576;-72
2022/05/02 11:32:39;;;;;;;9.70;8.85;;;26.10;61.60;;;;;;4974833;28;20228;-71
2022/05/02 11:35:24;;;;;;;12.05;10.18;;;26.70;59.20;;;;;;4973407;28;20581;-71
2022/05/02 11:38:14;;;;;;;9.82;9.13;;;26.20;58.90;;;;;;4973878;28;20750;-71
2022/05/02 11:40:50;;;;;;;7.55;7.05;;;25.90;59.70;;;;;;4974256;28;20181;-71
2022/05/02 11:43:23;;;;;;;7.93;7.25;;;26.30;58.80;;;;;;4974256;28;20677;-71
2022/05/02 11:46:10;;;;;;;8.20;7.43;;;26.20;58.30;;;;;;4973192;28;20219;-71
2022/05/02 11:49:00;;;;;;;9.48;8.77;;;25.30;58.70;;;;;;4973797;28;20209;-70
2022/05/02 11:51:43;;;;;;;7.95;7.22;;;24.50;60.50;;;;;;4974470;28;20185;-71
2022/05/02 11:54:39;;;;;;;8.27;7.47;;;24.50;61.50;;;;;;4974152;28;20280;-71
2022/05/02 11:57:13;;;;;;;8.05;7.43;;;24.00;61.90;;;;;;4968858;28;20216;-71
2022/05/02 11:59:57;;;;;;;7.22;6.57;;;23.90;63.50;;;;;;4989442;28;20208;-71
2022/05/02 12:02:38;;;;;;;7.13;6.63;;;23.90;63.90;;;;;;4993544;28;20176;-71
2022/05/02 12:05:23;;;;;;;6.80;6.30;;;23.80;64.10;;;;;;4994772;28;20220;-70
2022/05/02 12:07:57;;;;;;;6.82;6.32;;;23.80;63.10;;;;;;4993548;28;20188;-70
2022/05/02 12:10:47;;;;;;;6.88;6.47;;;23.30;63.50;;;;;;4992023;28;20177;-70
2022/05/02 12:13:20;;;;;;;9.00;8.40;;;23.00;64.80;;;;;;4992570;28;20255;-70
2022/05/02 12:15:59;;;;;;;8.60;8.10;;;22.90;65.70;;;;;;4999816;28;20251;-70
2022/05/02 12:18:42;;;;;;;7.47;6.45;;;24.00;64.30;;;;;;5006804;28;20278;-70
2022/05/02 12:21:14;;;;;;;7.50;6.78;;;25.30;61.40;;;;;;4996113;28;20255;-71
2022/05/02 12:23:41;;;;;;;9.30;8.70;;;26.30;61.00;;;;;;4993452;28;20672;-70
2022/05/02 12:26:19;;;;;;;6.97;6.47;;;27.90;56.20;;;;;;4990810;28;20562;-70
2022/05/02 12:28:47;;;;;;;6.18;5.72;;;28.00;54.40;;;;;;4994551;28;20195;-71
2022/05/02 12:31:38;;;;;;;6.20;5.70;;;27.80;55.10;;;;;;5011841;28;20607;-70
2022/05/02 12:34:12;;;;;;;6.43;5.78;;;27.10;54.50;;;;;;5012350;28;20188;-71
2022/05/02 12:36:43;;;;;;;5.90;5.50;;;25.80;56.80;;;;;;5011687;28;20187;-71
2022/05/02 12:39:24;;;;;;;8.50;7.85;;;25.10;56.80;;;;;;5011524;28;20183;-70
2022/05/02 12:41:59;;;;;;;8.77;8.27;;;24.60;58.30;;;;;;5012752;28;20180;-71
2022/05/02 12:44:36;;;;;;;8.77;8.05;;;24.70;58.00;;;;;;5012721;28;20218;-71
2022/05/02 12:47:09;;;;;;;8.95;8.45;;;25.20;57.40;;;;;;5012080;28;20214;-71
2022/05/02 12:50:00;;;;;;;7.57;6.97;;;25.30;58.20;;;;;;5011769;28;20248;-71
2022/05/02 12:52:28;;;;;;;7.45;6.93;;;25.20;57.00;;;;;;5012565;28;20180;-71
2022/05/02 12:54:55;;;;;;;7.93;7.32;;;25.10;56.90;;;;;;5012307;28;20209;-72
2022/05/02 13:00:32;;;;;;;8.45;7.75;;;27.10;55.30;;;;;;5016221;28;20175;-72
2022/05/02 13:03:15;;;;;;;8.18;7.43;;;28.20;53.90;;;;;;5014524;28;20889;-71
2022/05/02 13:05:53;;;;;;;6.32;5.90;;;29.00;52.40;;;;;;5004533;28;20223;-71
2022/05/02 13:08:33;;;;;;;7.15;6.55;;;29.60;51.00;;;;;;5011477;28;20214;-71
2022/05/02 13:11:09;;;;;;;6.00;5.55;;;28.90;50.20;;;;;;5010909;28;20210;-71
2022/05/02 13:13:47;;;;;;;6.63;6.22;;;27.80;51.00;;;;;;5011885;28;20183;-71
2022/05/02 13:16:20;;;;;;;6.55;6.15;;;26.20;53.00;;;;;;5013076;28;20215;-71
2022/05/02 13:18:48;;;;;;;6.22;5.82;;;25.60;53.50;;;;;;5012103;28;20397;-72
2022/05/02 13:21:15;;;;;;;6.07;5.57;;;25.60;54.80;;;;;;5011612;28;20270;-72
2022/05/02 13:23:54;;;;;;;5.53;5.20;;;26.70;52.90;;;;;;5011620;28;20184;-72
2022/05/02 13:26:30;;;;;;;5.78;5.47;;;26.40;52.10;;;;;;5011590;28;20247;-72
2022/05/02 13:29:22;;;;;;;7.43;6.93;;;26.10;52.80;;;;;;5011742;28;20257;-72
2022/05/02 13:32:02;;;;;;;9.38;8.57;;;26.60;54.20;;;;;;5011795;28;20184;-72
2022/05/02 13:34:34;;;;;;;6.72;6.25;;;28.40;51.10;;;;;;5011308;28;20211;-71
2022/05/02 13:37:13;;;;;;;6.63;6.13;;;29.20;48.80;;;;;;5010755;28;20190;-71
2022/05/02 13:39:45;;;;;;;8.10;5.30;;;29.60;49.30;;;;;;5011222;28;20197;-71
2022/05/02 13:42:16;;;;;;;7.47;6.97;;;30.50;46.50;;;;;;5009950;28;20195;-71
2022/05/02 13:44:45;;;;;;;6.05;5.65;;;30.40;46.20;;;;;;5011046;28;20218;-71
2022/05/02 13:47:15;;;;;;;7.18;6.68;;;31.30;45.00;;;;;;5010919;28;20187;-71
2022/05/02 13:50:06;;;;;;;7.18;6.78;;;30.60;44.80;;;;;;5011224;28;20188;-70
2022/05/02 13:52:34;;;;;;;5.80;5.50;;;28.90;46.10;;;;;;5011277;28;20180;-71
2022/05/02 13:55:09;;;;;;;6.22;5.68;;;28.00;47.90;;;;;;5011580;28;20217;-71
2022/05/02 13:57:50;;;;;;;7.40;6.90;;;27.70;48.10;;;;;;5011577;28;20266;-70
2022/05/02 14:03:08;;;;;;;6.65;6.05;;;26.50;49.20;;;;;;5011660;28;20190;-71
2022/05/02 14:05:57;;;;;;;8.25;7.65;;;26.80;48.60;;;;;;5002388;28;20212;-71
2022/05/02 14:08:34;;;;;;;7.63;7.13;;;26.10;50.30;;;;;;4972317;28;20215;-72
2022/05/02 14:11:00;;;;;;;6.30;5.90;;;25.30;53.10;;;;;;4972041;28;20187;-71
2022/05/02 14:13:28;;;;;;;6.43;6.03;;;25.20;53.50;;;;;;4990746;28;20556;-72
2022/05/02 14:16:02;;;;;;;5.47;5.18;;;26.20;52.00;;;;;;4991190;28;20258;-73
2022/05/02 14:18:33;;;;;;;6.20;5.80;;;27.50;50.00;;;;;;4995345;28;20183;-73
2022/05/02 14:21:00;;;;;;;6.10;5.70;;;27.40;48.30;;;;;;5005080;28;20252;-73
2022/05/02 14:23:26;;;;;;;7.38;6.85;;;27.60;49.00;;;;;;4998901;28;20271;-74
2022/05/02 14:25:52;;;;;;;9.40;8.63;;;27.90;47.20;;;;;;4992480;28;20308;-76
2022/05/02 14:28:20;;;;;;;8.85;8.35;;;28.40;47.00;;;;;;4990755;28;20176;-76
2022/05/02 14:30:59;;;;;;;6.57;6.25;;;28.70;46.40;;;;;;4991319;28;20191;-76
2022/05/02 14:33:34;;;;;;;6.20;5.57;;;29.40;45.40;;;;;;4989897;28;20208;-75
2022/05/02 14:36:00;;;;;;;5.63;5.32;;;30.10;43.70;;;;;;4989680;28;20214;-76
2022/05/02 14:38:27;;;;;;;5.57;5.18;;;29.90;44.50;;;;;;4990977;28;20270;-76
2022/05/02 14:40:55;;;;;;;6.38;5.97;;;29.50;44.60;;;;;;4991212;28;20231;-75
2022/05/02 14:43:21;;;;;;;5.88;5.47;;;29.40;45.70;;;;;;4990728;28;20526;-75
2022/05/02 14:45:50;;;;;;;5.72;5.07;;;29.40;44.80;;;;;;4990848;28;20306;-76
2022/05/02 14:48:16;;;;;;;5.70;4.93;;;29.80;44.70;;;;;;4990653;28;20271;-75
2022/05/02 14:50:44;;;;;;;6.00;5.60;;;29.70;44.30;;;;;;4990939;28;20215;-75
2022/05/02 14:53:12;;;;;;;8.60;8.18;;;29.60;45.00;;;;;;4990853;28;20176;-75
2022/05/02 14:55:42;;;;;;;8.48;8.07;;;28.70;46.10;;;;;;4991018;28;20211;-76
2022/05/02 14:58:11;;;;;;;7.35;6.95;;;28.90;47.20;;;;;;4990148;28;20758;-76
2022/05/02 15:00:45;;;;;;;7.32;6.93;;;29.20;45.90;;;;;;4989810;28;20296;-75
2022/05/02 15:03:14;;;;;;;7.32;6.93;;;28.60;46.30;;;;;;4993777;28;20183;-76
2022/05/02 15:05:41;;;;;;;8.38;7.88;;;28.30;47.40;;;;;;4994204;28;20582;-75
2022/05/02 15:08:58;;;;;;;7.65;6.65;;;28.20;47.30;;;;;;4994243;28;20280;-75
2022/05/02 15:11:27;;;;;;;6.00;5.70;;;27.80;47.30;;;;;;4961031;28;20243;-75
2022/05/02 15:14:26;;;;;;;10.23;9.63;;;26.90;49.40;;;;;;4995017;28;20172;-75
2022/05/02 15:16:58;;;;;;;9.40;8.80;;;26.60;50.30;;;;;;4988714;23;20232;-74
2022/05/02 15:19:34;;;;;;;7.70;7.30;;;26.80;49.60;;;;;;4953894;29;20185;-74
2022/05/02 15:22:28;;;;;;;6.97;6.47;;;25.70;50.60;;;;;;4958381;29;20665;-76
2022/05/02 15:25:06;;;;;;;6.53;5.93;;;24.70;52.00;;;;;;4956920;28;20263;-76
2022/05/02 15:36:50;;;;;;;7.30;6.90;;;23.30;55.90;;;;;;4956733;29;20264;-73
2022/05/02 15:39:32;;;;;;;6.65;6.15;;;23.30;55.40;;;;;;4955426;28;20186;-73
2022/05/02 15:42:03;;;;;;;6.80;6.40;;;23.50;54.70;;;;;;4954158;29;20204;-74
2022/05/02 15:44:39;;;;;;;6.95;6.55;;;23.20;55.40;;;;;;4953967;28;20197;-73
2022/05/02 15:47:13;;;;;;;7.78;7.28;;;23.30;56.10;;;;;;4955155;28;20208;-76
2022/05/02 15:49:43;;;;;;;8.13;7.57;;;23.50;56.50;;;;;;4955340;29;20185;-73
2022/05/02 15:52:14;;;;;;;7.40;7.00;;;23.90;57.10;;;;;;4955283;28;20181;-73
2022/05/02 15:54:57;;;;;;;7.65;7.22;;;23.90;57.30;;;;;;4955856;28;20693;-73
2022/05/02 15:57:43;;;;;;;8.38;7.93;;;23.60;57.60;;;;;;4953841;29;20349;-74
2022/05/02 16:00:23;;;;;;;8.63;8.13;;;23.80;58.00;;;;;;4954669;29;20224;-73
2022/05/02 16:03:08;;;;;;;8.10;7.32;;;24.10;57.90;;;;;;4955794;29;20190;-73
2022/05/02 16:06:01;;;;;;;7.40;6.97;;;23.80;57.10;;;;;;4955912;28;20275;-73
2022/05/02 16:11:15;;;;;;;6.95;6.47;;;24.30;56.10;;;;;;4955684;29;20181;-74
2022/05/02 16:13:43;;;;;;;7.30;6.80;;;24.50;55.70;;;;;;4924996;29;20190;-73
2022/05/02 16:16:21;;;;;;;6.53;6.13;;;24.90;54.80;;;;;;4917295;29;20352;-73
2022/05/02 16:18:49;;;;;;;7.38;6.78;;;25.20;54.20;;;;;;4916536;29;20197;-74
2022/05/02 16:21:24;;;;;;;7.30;6.80;;;25.60;53.00;;;;;;4919943;29;20202;-74
2022/05/02 16:23:51;;;;;;;7.80;7.15;;;25.50;52.30;;;;;;4931286;29;20200;-75
2022/05/02 16:26:18;;;;;;;7.25;6.75;;;25.40;53.90;;;;;;4926989;29;20214;-75
2022/05/02 16:28:49;;;;;;;7.85;7.35;;;24.80;54.30;;;;;;4917180;29;20274;-75
2022/05/02 16:31:17;;;;;;;9.52;8.82;;;24.30;55.30;;;;;;4916940;29;20219;-75
2022/05/02 16:33:44;;;;;;;24.00;10.40;;;23.80;56.60;;;;;;4934307;29;20182;-74
2022/05/02 16:36:11;;;;;;;17.45;8.73;;;23.70;57.10;;;;;;4937158;29;20210;-75
2022/05/02 16:38:42;;;;;;;12.38;7.53;;;23.70;57.00;;;;;;4935969;29;20214;-74
2022/05/02 16:41:22;;;;;;;10.20;9.00;;;23.80;57.10;;;;;;4936844;29;20253;-74
2022/05/02 16:43:53;;;;;;;6.82;6.38;;;23.90;57.00;;;;;;4926044;29;20186;-75
2022/05/02 16:46:20;;;;;;;8.05;7.45;;;23.80;57.40;;;;;;4918150;29;20222;-73
2022/05/02 16:48:46;;;;;;;9.77;8.93;;;23.60;57.70;;;;;;4917532;29;20274;-75
2022/05/02 16:51:26;;;;;;;11.50;10.63;;;23.50;57.70;;;;;;4917990;29;20282;-75
2022/05/02 16:53:54;;;;;;;16.55;12.63;;;23.30;58.20;;;;;;4936183;29;20312;-75
2022/05/02 16:56:22;;;;;;;11.35;10.20;;;23.40;58.40;;;;;;4935072;29;20233;-75
2022/05/02 16:58:48;;;;;;;9.40;8.70;;;23.20;59.00;;;;;;4936239;29;20186;-74
2022/05/02 17:01:15;;;;;;;8.73;8.23;;;23.20;61.00;;;;;;4936849;28;20670;-76
2022/05/02 17:03:49;;;;;;;10.10;9.25;;;23.20;60.80;;;;;;4928241;28;20185;-76
2022/05/02 17:06:14;;;;;;;16.63;14.93;;;23.30;63.10;;;;;;4927292;29;20214;-75
2022/05/02 17:08:40;;;;;;;28.20;20.35;;;22.80;63.60;;;;;;4915978;29;20199;-74
2022/05/02 17:11:07;;;;;;;11.82;10.70;;;22.10;66.10;;;;;;4917933;29;20562;-74
2022/05/02 17:13:34;;;;;;;9.73;8.93;;;21.50;69.20;;;;;;4918295;29;20238;-75
2022/05/02 17:16:19;;;;;;;10.32;9.63;;;21.10;70.30;;;;;;4938427;28;20221;-74